createdAt,value
2022-11-13T07:33:01.999Z,97160.13
2022-11-13T07:34:03.451Z,97174.25
2022-11-13T07:35:05.306Z,97166.78
2022-11-13T07:36:07.892Z,97168.00
2022-11-13T07:37:09.244Z,97168.41
2022-11-13T07:38:10.680Z,97173.94
2022-11-13T07:39:12.091Z,97178.78
2022-11-13T07:40:13.589Z,97177.44
2022-11-13T07:41:15.072Z,97184.06
2022-11-13T07:42:16.416Z,97165.34
2022-11-13T07:43:18.112Z,97179.81
2022-11-13T07:44:40.081Z,97176.75
2022-11-13T07:45:40.852Z,97158.38
2022-11-13T07:46:42.373Z,97165.28
2022-11-13T07:47:43.719Z,97167.41
2022-11-13T07:48:45.053Z,97159.75
2022-11-13T07:54:41.900Z,97162.63
2022-11-13T07:55:43.416Z,97164.75
2022-11-13T07:56:47.242Z,97162.25
2022-11-13T07:57:48.576Z,97163.31
2022-11-13T07:58:49.905Z,97156.13
2022-11-13T07:59:53.153Z,97158.34
2022-11-13T08:00:57.606Z,97151.75
2022-11-13T08:01:59.003Z,97153.13
2022-11-13T08:03:13.619Z,97159.63
2022-11-13T08:04:14.972Z,97157.31
2022-11-13T08:05:16.640Z,97159.75
2022-11-13T08:06:18.020Z,97152.44
2022-11-13T08:07:19.437Z,97151.72
2022-11-13T08:08:25.497Z,97157.75
2022-11-13T08:09:26.899Z,97157.56
2022-11-13T08:10:28.812Z,97146.88
2022-11-13T08:11:30.140Z,97156.72
2022-11-13T08:12:31.588Z,97162.31
2022-11-13T08:13:38.419Z,97153.25
2022-11-13T08:14:39.819Z,97159.44
2022-11-13T08:15:41.213Z,97160.41
2022-11-13T08:16:42.537Z,97156.22
2022-11-13T08:17:43.860Z,97145.88
2022-11-13T08:18:45.341Z,97153.38
2022-11-13T08:19:46.664Z,97156.41
2022-11-13T08:20:48.023Z,97155.59
2022-11-13T08:21:49.359Z,97156.19
2022-11-13T08:22:50.837Z,97155.22
2022-11-13T08:23:55.690Z,97143.34
2022-11-13T08:24:57.997Z,97160.28
2022-11-13T08:26:04.632Z,97150.22
2022-11-13T08:27:07.075Z,97160.56
2022-11-13T08:28:12.792Z,97158.19
2022-11-13T08:29:14.891Z,97154.50
2022-11-13T08:30:16.320Z,97152.47
2022-11-13T08:31:17.691Z,97149.50
2022-11-13T08:32:19.963Z,97135.91
2022-11-13T08:33:24.850Z,97130.63
2022-11-13T08:34:26.188Z,97145.41
2022-11-13T08:35:29.608Z,97138.06
2022-11-13T08:36:31.241Z,97133.22
2022-11-13T08:37:33.079Z,97136.66
2022-11-13T08:38:34.550Z,97136.31
2022-11-13T08:39:36.017Z,97137.28
2022-11-13T08:40:37.406Z,97126.09
2022-11-13T08:41:38.736Z,97125.78
2022-11-13T08:42:40.228Z,97113.06
2022-11-13T08:43:41.637Z,97119.69
2022-11-13T08:44:43.043Z,97115.22
2022-11-13T08:45:47.876Z,97123.31
2022-11-13T08:46:49.187Z,97125.56
2022-11-13T08:47:50.512Z,97121.16
2022-11-13T08:48:52.296Z,97121.06
2022-11-13T08:49:54.588Z,97102.22
2022-11-13T08:50:57.155Z,97111.81
2022-11-13T08:51:58.573Z,97119.03
2022-11-13T08:53:00.916Z,97118.69
2022-11-13T08:54:02.387Z,97113.78
2022-11-13T08:55:04.095Z,97114.81
2022-11-13T08:56:05.914Z,97122.19
2022-11-13T08:57:07.347Z,97112.56
2022-11-13T08:58:09.324Z,97119.81
2022-11-13T08:59:11.212Z,97120.75
2022-11-13T09:00:13.139Z,97099.09
2022-11-13T09:01:14.551Z,97114.44
2022-11-13T09:02:16.139Z,97108.59
2022-11-13T09:03:17.566Z,97119.13
2022-11-13T09:04:18.898Z,97111.53
2022-11-13T09:05:20.268Z,97112.69
2022-11-13T09:06:21.745Z,97122.63
2022-11-13T09:07:27.194Z,97109.44
2022-11-13T09:08:33.888Z,97124.72
2022-11-13T09:09:35.222Z,97118.59
2022-11-13T09:10:36.635Z,97122.44
2022-11-13T09:11:38.109Z,97091.00
2022-11-13T09:12:39.585Z,97118.84
2022-11-13T09:13:45.784Z,97103.84
2022-11-13T09:14:50.316Z,97122.66
2022-11-13T09:15:51.690Z,97124.66
2022-11-13T09:16:53.010Z,97098.69
2022-11-13T09:17:58.827Z,97122.50
2022-11-13T09:19:00.334Z,97108.53
2022-11-13T09:20:04.313Z,97103.59
2022-11-13T09:21:06.768Z,97115.88
2022-11-13T09:22:08.104Z,97105.91
2022-11-13T09:23:09.768Z,97108.00
2022-11-13T09:24:11.172Z,97108.34
2022-11-13T09:25:12.551Z,97108.91
2022-11-13T09:26:13.921Z,97107.84
2022-11-13T09:27:15.308Z,97098.59
2022-11-13T09:28:16.784Z,97104.69
2022-11-13T09:29:18.268Z,97103.28
2022-11-13T09:30:19.748Z,97106.09
2022-11-13T09:31:24.241Z,97107.50
2022-11-13T09:32:25.591Z,97110.47
2022-11-13T09:33:26.952Z,97095.16
2022-11-13T09:34:28.516Z,97103.59
2022-11-13T09:35:34.507Z,97101.06
2022-11-13T09:36:36.830Z,97104.78
2022-11-13T09:37:38.176Z,97089.06
2022-11-13T09:38:40.052Z,97102.94
2022-11-13T09:39:41.455Z,97107.03
2022-11-13T09:40:49.816Z,97107.31
2022-11-13T09:41:59.925Z,97095.25
2022-11-13T09:43:04.519Z,97099.75
2022-11-13T09:44:15.848Z,97101.78
2022-11-13T09:45:17.560Z,97092.28
2022-11-13T09:46:59.442Z,97099.13
2022-11-13T09:48:16.153Z,97102.03
2022-11-13T09:49:25.777Z,97095.09
2022-11-13T09:50:30.937Z,97090.94
2022-11-13T09:51:37.136Z,97080.88
2022-11-13T09:52:42.599Z,97090.44
2022-11-13T09:53:44.118Z,97077.56
2022-11-13T09:54:45.604Z,97074.97
2022-11-13T09:56:11.621Z,97082.88
2022-11-13T09:57:26.466Z,97077.91
2022-11-13T09:58:49.698Z,97084.22
2022-11-13T10:00:00.663Z,97081.47
2022-11-13T10:01:02.338Z,97082.38
2022-11-13T10:02:19.109Z,97084.00
2022-11-13T10:04:00.341Z,97081.16
2022-11-13T10:05:04.074Z,97086.34
2022-11-13T10:06:27.881Z,97086.38
2022-11-13T10:07:59.866Z,97078.34
2022-11-13T10:09:19.072Z,97078.78
2022-11-13T10:10:42.485Z,97084.81
2022-11-13T10:11:54.827Z,97084.13
2022-11-13T10:13:00.023Z,97086.81
2022-11-13T10:14:07.889Z,97074.81
2022-11-13T10:15:11.108Z,97072.22
2022-11-13T10:16:30.463Z,97080.59
2022-11-13T10:17:39.922Z,97085.13
2022-11-13T10:18:44.071Z,97080.34
2022-11-13T10:20:21.208Z,97081.31
2022-11-13T10:21:45.195Z,97063.88
2022-11-13T10:22:57.051Z,97079.78
2022-11-13T10:24:05.504Z,97078.25
2022-11-13T10:25:19.978Z,97074.47
2022-11-13T10:26:24.648Z,97076.25
2022-11-13T10:27:29.767Z,97073.31
2022-11-13T10:29:53.791Z,97083.31
2022-11-13T10:30:55.702Z,97074.84
2022-11-13T10:31:58.304Z,97070.56
2022-11-13T10:33:06.046Z,97047.13
2022-11-13T10:34:07.656Z,97047.66
2022-11-13T10:35:45.296Z,97069.06
2022-11-13T10:37:08.324Z,97071.78
2022-11-13T10:38:50.080Z,97074.69
2022-11-13T10:39:51.423Z,97071.63
2022-11-13T10:40:52.940Z,97060.84
2022-11-13T10:41:55.382Z,97053.31
2022-11-13T10:43:07.554Z,97056.75
2022-11-13T10:44:35.302Z,97055.84
2022-11-13T10:45:36.723Z,97059.81
2022-11-13T10:46:38.093Z,97062.63
2022-11-13T10:48:04.944Z,97058.50
2022-11-13T10:49:21.888Z,97027.28
2022-11-13T10:50:30.888Z,97052.22
2022-11-13T10:51:35.242Z,97053.16
2022-11-13T10:52:45.751Z,97039.50
2022-11-13T10:53:47.783Z,97035.69
2022-11-13T10:54:49.934Z,97037.41
2022-11-13T10:55:56.050Z,97044.16
2022-11-13T10:57:16.258Z,97029.28
2022-11-13T10:58:19.674Z,97040.44
2022-11-13T10:59:21.194Z,97043.78
2022-11-13T11:00:29.736Z,97039.81
2022-11-13T11:01:31.181Z,97031.09
2022-11-13T11:02:32.609Z,97039.97
2022-11-13T11:03:34.051Z,97000.66
2022-11-13T11:04:38.266Z,97031.41
2022-11-13T11:05:39.686Z,97027.53
2022-11-13T11:07:17.911Z,97024.72
2022-11-13T11:08:09.791Z,96996.19
2022-11-13T11:09:18.988Z,97017.72
2022-11-13T11:10:34.443Z,97008.63
2022-11-13T11:11:54.338Z,97012.94
2022-11-13T11:13:20.208Z,97010.44
2022-11-13T11:14:57.594Z,97003.63
2022-11-13T11:16:01.793Z,97000.00
2022-11-13T11:17:05.705Z,96993.88
2022-11-13T11:18:12.959Z,96999.53
2022-11-13T11:19:15.718Z,96982.75
2022-11-13T11:20:22.776Z,96987.28
2022-11-13T11:21:34.008Z,96984.69
2022-11-13T11:22:44.154Z,96972.13
2022-11-13T11:24:02.922Z,96985.44
2022-11-13T11:25:12.735Z,96979.41
2022-11-13T11:26:29.503Z,96976.00
2022-11-13T11:27:46.377Z,96979.94
2022-11-13T11:29:21.525Z,96973.25
2022-11-13T11:30:26.485Z,96974.34
2022-11-13T11:31:30.767Z,96975.50
2022-11-13T11:32:48.390Z,96969.69
2022-11-13T11:33:59.247Z,96969.47
2022-11-13T11:35:08.439Z,96951.84
2022-11-13T11:36:38.428Z,96955.19
2022-11-13T11:37:55.948Z,96956.25
2022-11-13T11:39:10.607Z,96951.91
2022-11-13T11:40:36.087Z,96954.34
2022-11-13T11:41:46.413Z,96930.78
2022-11-13T11:42:58.728Z,96956.13
2022-11-13T11:44:19.235Z,96948.31
2022-11-13T11:45:32.974Z,96935.63
2022-11-13T11:46:35.576Z,96938.41
2022-11-13T11:47:37.579Z,96929.19
2022-11-13T11:48:39.228Z,96939.75
2022-11-13T11:49:41.131Z,96927.38
2022-11-13T11:51:08.712Z,96938.91
2022-11-13T11:52:15.912Z,96928.97
2022-11-13T11:53:25.735Z,96909.41
2022-11-13T11:54:46.158Z,96925.44
2022-11-13T11:55:55.063Z,96902.44
2022-11-13T11:57:03.770Z,96920.25
2022-11-13T11:58:29.623Z,96915.34
2022-11-13T11:59:49.940Z,96905.00
2022-11-13T12:00:55.051Z,96907.00
2022-11-13T12:02:08.388Z,96915.88
2022-11-13T12:03:18.967Z,96903.28
2022-11-13T12:04:38.635Z,96894.66
2022-11-13T12:05:51.949Z,96905.09
2022-11-13T12:07:27.365Z,96904.38
2022-11-13T12:08:43.343Z,96900.13
2022-11-13T12:10:07.247Z,96898.59
2022-11-13T12:11:30.643Z,96895.69
2022-11-13T12:12:50.788Z,96890.31
2022-11-13T12:14:35.875Z,96897.09
2022-11-13T12:15:49.229Z,96859.88
2022-11-13T12:17:17.482Z,96885.00
2022-11-13T12:18:36.186Z,96879.19
2022-11-13T12:20:00.319Z,96882.44
2022-11-13T12:21:11.559Z,96889.63
2022-11-13T12:22:36.291Z,96882.78
2022-11-13T12:23:56.421Z,96880.38
2022-11-13T12:25:25.357Z,96864.53
2022-11-13T12:26:47.072Z,96878.25
2022-11-13T12:28:05.011Z,96866.22
2022-11-13T12:29:25.087Z,96874.59
2022-11-13T12:30:49.303Z,96866.78
2022-11-13T12:32:17.247Z,96864.97
2022-11-13T12:33:42.003Z,96856.41
2022-11-13T12:34:59.083Z,96856.19
2022-11-13T12:36:02.884Z,96856.69
2022-11-13T12:37:11.667Z,96850.63
2022-11-13T12:38:40.188Z,96857.78
2022-11-13T12:40:01.113Z,96862.31
2022-11-13T12:41:35.595Z,96850.38
2022-11-13T12:42:46.444Z,96845.53
2022-11-13T12:44:23.402Z,96848.25
2022-11-13T12:45:36.873Z,96847.63
2022-11-13T12:46:40.370Z,96848.75
2022-11-13T12:47:42.408Z,96846.31
2022-11-13T12:48:46.373Z,96849.97
2022-11-13T12:49:59.377Z,96834.28
2022-11-13T12:51:07.839Z,96839.34
2022-11-13T12:52:24.013Z,96842.69
2022-11-13T12:53:28.471Z,96829.38
2022-11-13T12:54:36.063Z,96844.78
2022-11-13T12:55:43.441Z,96829.97
2022-11-13T12:56:44.956Z,96843.25
2022-11-13T12:57:48.049Z,96832.88
2022-11-13T12:59:30.515Z,96842.00
2022-11-13T13:00:35.524Z,96812.97
2022-11-13T13:01:45.201Z,96833.00
2022-11-13T13:03:04.684Z,96825.59
2022-11-13T13:04:43.499Z,96837.91
2022-11-13T13:06:19.466Z,96836.94
2022-11-13T13:07:58.029Z,96832.81
2022-11-13T13:09:17.135Z,96831.94
2022-11-13T13:10:27.969Z,96831.16
2022-11-13T13:11:44.376Z,96830.56
2022-11-13T13:13:23.722Z,96822.81
2022-11-13T13:14:54.724Z,96823.53
2022-11-13T13:15:59.738Z,96815.00
2022-11-13T13:17:22.939Z,96815.78
2022-11-13T13:18:25.877Z,96805.44
2022-11-13T13:19:30.524Z,96806.81
2022-11-13T13:20:38.221Z,96799.53
2022-11-13T13:21:44.576Z,96809.69
2022-11-13T13:22:55.750Z,96791.19
2022-11-13T13:24:07.384Z,96795.28
2022-11-13T13:25:26.410Z,96800.88
2022-11-13T13:26:33.038Z,96797.19
2022-11-13T13:27:37.988Z,96797.47
2022-11-13T13:28:41.630Z,96754.44
2022-11-13T13:29:43.009Z,96783.34
2022-11-13T13:31:20.597Z,96778.34
2022-11-13T13:32:34.856Z,96785.97
2022-11-13T13:34:13.113Z,96784.97
2022-11-13T13:35:22.217Z,96787.00
2022-11-13T13:36:33.107Z,96793.91
2022-11-13T13:37:49.094Z,96788.22
2022-11-13T13:39:06.501Z,96791.69
2022-11-13T13:40:42.882Z,96788.28
2022-11-13T13:42:11.205Z,96787.34
2022-11-13T13:43:36.247Z,96766.47
2022-11-13T13:45:25.257Z,96787.09
2022-11-13T13:46:32.113Z,96774.50
2022-11-13T13:47:42.660Z,96768.78
2022-11-13T13:48:47.083Z,96775.28
2022-11-13T13:49:48.495Z,96754.44
2022-11-13T13:50:51.802Z,96749.19
2022-11-13T13:51:56.130Z,96775.38
2022-11-13T13:52:59.601Z,96763.53
2022-11-13T13:54:05.636Z,96769.03
2022-11-13T13:55:07.863Z,96765.13
2022-11-13T13:56:14.140Z,96764.66
2022-11-13T13:57:19.532Z,96742.34
2022-11-13T13:58:31.702Z,96759.25
2022-11-13T13:59:39.767Z,96766.59
2022-11-13T14:01:05.027Z,96763.66
2022-11-13T14:02:13.982Z,96767.03
2022-11-13T14:03:23.862Z,96744.88
2022-11-13T14:04:28.066Z,96760.28
2022-11-13T14:05:34.973Z,96754.53
2022-11-13T14:06:36.353Z,96754.94
2022-11-13T14:07:46.026Z,96760.06
2022-11-13T14:08:48.548Z,96738.44
2022-11-13T14:09:50.455Z,96759.25
2022-11-13T14:10:53.141Z,96757.69
2022-11-13T14:12:04.887Z,96762.41
2022-11-13T14:13:14.533Z,96758.22
2022-11-13T14:14:27.297Z,96740.16
2022-11-13T14:15:34.071Z,96724.84
2022-11-13T14:16:46.554Z,96751.63
2022-11-13T14:17:48.144Z,96693.69
2022-11-13T14:18:49.469Z,96720.69
2022-11-13T14:19:53.028Z,96742.16
2022-11-13T14:21:04.331Z,96739.47
2022-11-13T14:22:10.308Z,96724.84
2022-11-13T14:23:33.533Z,96741.44
2022-11-13T14:24:53.063Z,96747.97
2022-11-13T14:25:56.369Z,96744.94
2022-11-13T14:26:58.722Z,96727.56
2022-11-13T14:28:00.203Z,96737.66
2022-11-13T14:29:02.832Z,96739.13
2022-11-13T14:30:07.202Z,96741.09
2022-11-13T14:31:12.007Z,96736.38
2022-11-13T14:32:18.401Z,96717.47
2022-11-13T14:33:24.872Z,96728.06
2022-11-13T14:34:26.232Z,96731.81
2022-11-13T14:35:30.712Z,96727.06
2022-11-13T14:36:34.290Z,96737.97
2022-11-13T14:37:39.624Z,96734.56
2022-11-13T14:38:50.503Z,96724.97
2022-11-13T14:39:55.460Z,96731.31
2022-11-13T14:41:01.536Z,96728.00
2022-11-13T14:42:03.039Z,96729.31
2022-11-13T14:43:07.526Z,96723.66
2022-11-13T14:44:11.979Z,96724.75
2022-11-13T14:45:23.388Z,96710.91
2022-11-13T14:46:29.749Z,96723.13
2022-11-13T14:47:37.303Z,96728.19
2022-11-13T14:48:38.928Z,96725.00
2022-11-13T14:49:40.277Z,96730.34
2022-11-13T14:50:51.189Z,96731.00
2022-11-13T14:51:57.402Z,96728.69
2022-11-13T14:53:04.733Z,96719.88
2022-11-13T14:54:08.900Z,96720.47
2022-11-13T14:55:22.050Z,96727.56
2022-11-13T14:56:33.169Z,96720.28
2022-11-13T14:57:34.560Z,96718.78
2022-11-13T14:58:47.121Z,96732.97
2022-11-13T14:59:48.720Z,96743.50
2022-11-13T15:00:50.219Z,96739.47
2022-11-13T15:01:56.128Z,96743.69
2022-11-13T15:02:58.249Z,96734.47
2022-11-13T15:04:02.282Z,96744.50
2022-11-13T15:05:03.792Z,96738.75
2022-11-13T15:06:17.863Z,96735.50
2022-11-13T15:07:28.782Z,96728.16
2022-11-13T15:08:30.251Z,96730.84
2022-11-13T15:09:31.628Z,96726.59
2022-11-13T15:10:35.536Z,96717.31
2022-11-13T15:11:44.139Z,96730.84
2022-11-13T15:12:47.944Z,96738.69
2022-11-13T15:13:50.119Z,96737.72
2022-11-13T15:14:56.647Z,96719.69
2022-11-13T15:16:00.357Z,96736.78
2022-11-13T15:17:01.753Z,96736.47
2022-11-13T15:18:03.896Z,96737.19
2022-11-13T15:19:13.630Z,96730.25
2022-11-13T15:20:41.305Z,96724.50
2022-11-13T15:21:51.117Z,96717.31
2022-11-13T15:23:11.167Z,96716.44
2022-11-13T15:24:13.247Z,96714.88
2022-11-13T15:25:16.445Z,96700.75
2022-11-13T15:26:17.876Z,96712.25
2022-11-13T15:27:19.617Z,96697.72
2022-11-13T15:28:21.153Z,96715.50
2022-11-13T15:29:22.500Z,96719.72
2022-11-13T15:30:23.869Z,96715.81
2022-11-13T15:31:37.501Z,96726.47
2022-11-13T15:32:39.324Z,96725.81
2022-11-13T15:33:40.828Z,96719.03
2022-11-13T15:34:42.478Z,96730.22
2022-11-13T15:35:44.266Z,96736.59
2022-11-13T15:36:45.905Z,96729.84
2022-11-13T15:37:47.575Z,96733.13
2022-11-13T15:38:48.912Z,96718.94
2022-11-13T15:39:50.247Z,96733.91
2022-11-13T15:40:51.801Z,96734.81
2022-11-13T15:41:53.231Z,96714.38
2022-11-13T15:42:55.269Z,96734.16
2022-11-13T15:43:57.351Z,96728.72
2022-11-13T15:44:58.784Z,96728.97
2022-11-13T15:46:01.167Z,96731.19
2022-11-13T15:47:02.487Z,96705.97
2022-11-13T15:48:04.117Z,96730.81
2022-11-13T15:49:05.477Z,96737.28
2022-11-13T15:50:13.994Z,96731.00
2022-11-13T15:51:33.224Z,96740.63
2022-11-13T15:52:40.168Z,96729.81
2022-11-13T15:53:41.812Z,96734.78
2022-11-13T15:54:43.504Z,96731.75
2022-11-13T15:55:45.023Z,96713.38
2022-11-13T15:56:47.185Z,96727.06
2022-11-13T15:57:52.062Z,96725.56
2022-11-13T15:58:53.447Z,96729.38
2022-11-13T15:59:55.129Z,96730.38
2022-11-13T16:00:56.671Z,96730.63
2022-11-13T16:01:58.589Z,96729.38
2022-11-13T16:03:02.940Z,96717.28
2022-11-13T16:04:05.818Z,96731.22
2022-11-13T16:05:07.372Z,96705.59
2022-11-13T16:06:12.403Z,96719.28
2022-11-13T16:07:18.645Z,96723.47
2022-11-13T16:08:22.862Z,96715.16
2022-11-13T16:09:24.225Z,96713.44
2022-11-13T16:10:25.639Z,96717.25
2022-11-13T16:11:29.609Z,96711.31
2022-11-13T16:12:31.071Z,96696.28
2022-11-13T16:13:32.686Z,96714.09
2022-11-13T16:14:34.265Z,96717.91
2022-11-13T16:15:35.717Z,96713.88
2022-11-13T16:16:47.108Z,96713.63
2022-11-13T16:17:58.938Z,96717.81
2022-11-13T16:19:01.451Z,96723.91
2022-11-13T16:20:04.453Z,96731.00
2022-11-13T16:21:06.112Z,96708.31
2022-11-13T16:22:17.704Z,96726.81
2022-11-13T16:23:19.223Z,96710.00
2022-11-13T16:24:24.077Z,96725.47
2022-11-13T16:25:26.170Z,96722.50
2022-11-13T16:26:27.968Z,96717.28
2022-11-13T16:27:35.728Z,96693.72
2022-11-13T16:28:52.891Z,96724.91
2022-11-13T16:30:02.367Z,96728.81
2022-11-13T16:31:07.937Z,96726.03
2022-11-13T16:32:15.347Z,96701.34
2022-11-13T16:33:16.852Z,96713.00
2022-11-13T16:34:18.242Z,96690.97
2022-11-13T16:35:20.141Z,96736.44
2022-11-13T16:36:22.480Z,96716.53
2022-11-13T16:37:24.394Z,96726.56
2022-11-13T16:38:25.805Z,96703.09
2022-11-13T16:39:32.437Z,96728.09
2022-11-13T16:40:34.134Z,96722.31
2022-11-13T16:41:36.836Z,96716.97
2022-11-13T16:42:38.184Z,96728.75
2022-11-13T16:43:39.664Z,96717.31
2022-11-13T16:44:41.521Z,96694.56
2022-11-13T16:45:43.020Z,96712.69
2022-11-13T16:46:45.798Z,96725.44
2022-11-13T16:47:47.773Z,96727.16
2022-11-13T16:48:49.184Z,96707.25
2022-11-13T16:49:51.191Z,96719.06
2022-11-13T16:50:52.543Z,96727.44
2022-11-13T16:51:53.965Z,96701.34
2022-11-13T16:52:56.536Z,96691.06
2022-11-13T16:54:01.801Z,96703.44
2022-11-13T16:55:06.568Z,96715.72
2022-11-13T16:56:30.647Z,96684.97
2022-11-13T16:57:31.980Z,96719.44
2022-11-13T16:58:33.307Z,96724.88
2022-11-13T16:59:34.684Z,96702.97
2022-11-13T17:00:36.034Z,96723.78
2022-11-13T17:01:40.423Z,96718.72
2022-11-13T17:02:42.335Z,96710.81
2022-11-13T17:03:44.460Z,96716.53
2022-11-13T17:04:46.030Z,96716.25
2022-11-13T17:05:51.698Z,96708.69
2022-11-13T17:06:56.668Z,96695.84
2022-11-13T17:08:00.159Z,96697.59
2022-11-13T17:09:02.983Z,96705.91
2022-11-13T17:10:29.790Z,96702.50
2022-11-13T17:11:28.449Z,96691.69
2022-11-13T17:12:29.930Z,96701.13
2022-11-13T17:13:31.835Z,96696.91
2022-11-13T17:14:34.955Z,96680.66
2022-11-13T17:15:36.285Z,96688.56
2022-11-13T17:16:38.091Z,96699.84
2022-11-13T17:17:39.479Z,96690.34
2022-11-13T17:18:40.848Z,96690.53
2022-11-13T17:19:44.104Z,96690.53
2022-11-13T17:20:45.441Z,96694.75
2022-11-13T17:21:46.782Z,96689.03
2022-11-13T17:22:48.967Z,96691.50
2022-11-13T17:24:01.919Z,96672.97
2022-11-13T17:25:03.737Z,96683.28
2022-11-13T17:26:05.709Z,96694.78
2022-11-13T17:27:10.230Z,96686.34
2022-11-13T17:28:11.587Z,96683.91
2022-11-13T17:29:13.087Z,96699.19
2022-11-13T17:30:14.709Z,96691.56
2022-11-13T17:31:16.096Z,96692.56
2022-11-13T17:32:17.473Z,96699.19
2022-11-13T17:33:18.958Z,96696.56
2022-11-13T17:34:20.280Z,96698.22
2022-11-13T17:35:21.687Z,96693.91
2022-11-13T17:36:23.165Z,96694.00
2022-11-13T17:37:25.411Z,96655.47
2022-11-13T17:38:29.170Z,96650.41
2022-11-13T17:39:30.634Z,96676.28
2022-11-13T17:40:33.536Z,96685.66
2022-11-13T17:41:35.007Z,96656.22
2022-11-13T17:42:36.469Z,96673.28
2022-11-13T17:43:39.832Z,96683.41
2022-11-13T17:44:41.220Z,96686.19
2022-11-13T17:45:42.570Z,96681.88
2022-11-13T17:46:44.086Z,96679.56
2022-11-13T17:47:50.052Z,96668.31
2022-11-13T17:48:51.423Z,96670.34
2022-11-13T17:49:52.772Z,96676.88
2022-11-13T17:51:02.063Z,96677.75
2022-11-13T17:52:03.428Z,96676.03
2022-11-13T17:53:04.804Z,96655.38
2022-11-13T17:54:06.246Z,96678.31
2022-11-13T17:55:12.903Z,96663.91
2022-11-13T17:56:17.837Z,96658.81
2022-11-13T17:57:26.705Z,96669.88
2022-11-13T17:58:29.439Z,96672.59
2022-11-13T17:59:30.763Z,96665.88
2022-11-13T18:00:32.396Z,96668.41
2022-11-13T18:01:33.899Z,96657.53
2022-11-13T18:02:38.584Z,96670.03
2022-11-13T18:03:40.178Z,96645.34
2022-11-13T18:04:41.735Z,96670.28
2022-11-13T18:05:43.256Z,96655.34
2022-11-13T18:06:44.780Z,96667.41
2022-11-13T18:07:46.259Z,96651.97
2022-11-13T18:08:50.383Z,96617.41
2022-11-13T18:09:51.814Z,96679.44
2022-11-13T18:10:53.257Z,96674.38
2022-11-13T18:11:54.690Z,96673.78
2022-11-13T18:12:56.163Z,96674.75
2022-11-13T18:13:57.600Z,96674.72
2022-11-13T18:14:58.922Z,96681.56
2022-11-13T18:16:05.786Z,96676.50
2022-11-13T18:17:07.174Z,96680.78
2022-11-13T18:18:08.561Z,96674.97
2022-11-13T18:19:10.049Z,96679.22
2022-11-13T18:20:11.839Z,96685.34
2022-11-13T18:21:22.798Z,96683.63
2022-11-13T18:22:27.602Z,96684.41
2022-11-13T18:23:29.245Z,96674.19
2022-11-13T18:24:30.878Z,96652.06
2022-11-13T18:25:39.533Z,96673.72
2022-11-13T18:26:41.531Z,96640.47
2022-11-13T18:27:44.124Z,96664.66
2022-11-13T18:28:45.506Z,96674.28
2022-11-13T18:29:47.022Z,96650.31
2022-11-13T18:30:53.463Z,96664.03
2022-11-13T18:31:57.684Z,96662.13
2022-11-13T18:32:59.109Z,96662.06
2022-11-13T18:34:02.474Z,96672.25
2022-11-13T18:35:04.218Z,96670.81
2022-11-13T18:36:05.908Z,96671.53
2022-11-13T18:37:07.330Z,96678.22
2022-11-13T18:38:08.728Z,96668.84
2022-11-13T18:39:15.311Z,96673.81
2022-11-13T18:40:18.041Z,96672.50
2022-11-13T18:41:21.140Z,96675.13
2022-11-13T18:42:22.780Z,96675.16
2022-11-13T18:43:24.142Z,96652.53
2022-11-13T18:44:25.643Z,96673.94
2022-11-13T18:45:26.999Z,96674.19
2022-11-13T18:46:28.385Z,96668.69
2022-11-13T18:47:29.835Z,96673.47
2022-11-13T18:48:33.046Z,96627.53
2022-11-13T18:49:34.436Z,96673.47
2022-11-13T18:50:35.768Z,96670.84
2022-11-13T18:51:37.818Z,96660.66
2022-11-13T18:52:39.316Z,96669.41
2022-11-13T18:53:41.387Z,96661.63
2022-11-13T18:54:42.772Z,96659.00
2022-11-13T18:55:44.102Z,96635.72
2022-11-13T18:56:45.482Z,96654.91
2022-11-13T18:57:46.827Z,96661.94
2022-11-13T18:58:49.974Z,96659.59
2022-11-13T18:59:51.962Z,96666.22
2022-11-13T19:00:53.461Z,96665.66
2022-11-13T19:01:54.953Z,96659.34
2022-11-13T19:02:58.023Z,96662.81
2022-11-13T19:04:21.680Z,96666.97
2022-11-13T19:05:23.798Z,96651.75
2022-11-13T19:06:25.533Z,96658.56
2022-11-13T19:07:27.017Z,96646.50
2022-11-13T19:08:33.528Z,96666.56
2022-11-13T19:09:36.677Z,96665.44
2022-11-13T19:10:38.091Z,96644.25
2022-11-13T19:11:40.203Z,96663.66
2022-11-13T19:12:42.172Z,96660.28
2022-11-13T19:13:48.323Z,96652.53
2022-11-13T19:14:49.704Z,96627.81
2022-11-13T19:15:52.780Z,96657.69
2022-11-13T19:16:54.236Z,96639.66
2022-11-13T19:17:55.642Z,96641.31
2022-11-13T19:19:00.082Z,96644.78
2022-11-13T19:20:01.467Z,96641.44
2022-11-13T19:21:08.290Z,96640.03
2022-11-13T19:22:09.610Z,96644.94
2022-11-13T19:23:10.930Z,96638.03
2022-11-13T19:24:14.586Z,96598.03
2022-11-13T19:25:16.149Z,96637.09
2022-11-13T19:26:18.027Z,96631.31
2022-11-13T19:27:19.401Z,96619.34
2022-11-13T19:28:20.931Z,96627.84
2022-11-13T19:29:26.315Z,96630.44
2022-11-13T19:30:27.709Z,96620.16
2022-11-13T19:31:29.141Z,96620.50
2022-11-13T19:32:30.597Z,96615.97
2022-11-13T19:33:31.987Z,96621.78
2022-11-13T19:34:33.359Z,96626.84
2022-11-13T19:35:36.732Z,96632.94
2022-11-13T19:36:40.823Z,96632.41
2022-11-13T19:37:42.201Z,96607.31
2022-11-13T19:38:44.461Z,96633.38
2022-11-13T19:39:46.003Z,96621.50
2022-11-13T19:40:52.549Z,96627.03
2022-11-13T19:41:53.990Z,96646.84
2022-11-13T19:42:55.329Z,96621.91
2022-11-13T19:44:02.795Z,96607.03
2022-11-13T19:45:04.310Z,96639.94
2022-11-13T19:46:11.515Z,96642.25
2022-11-13T19:47:16.699Z,96629.34
2022-11-13T19:48:19.083Z,96643.22
2022-11-13T19:49:22.908Z,96624.31
2022-11-13T19:50:27.313Z,96636.94
2022-11-13T19:51:28.748Z,96626.59
2022-11-13T19:52:30.241Z,96632.69
2022-11-13T19:53:32.460Z,96625.06
2022-11-13T19:54:33.789Z,96618.22
2022-11-13T19:55:35.277Z,96631.13
2022-11-13T19:56:37.131Z,96638.97
2022-11-13T19:57:43.355Z,96625.53
2022-11-13T19:58:48.156Z,96628.94
2022-11-13T19:59:50.388Z,96614.38
2022-11-13T20:00:53.360Z,96629.59
2022-11-13T20:01:57.284Z,96610.22
2022-11-13T20:02:59.966Z,96620.56
2022-11-13T20:04:10.493Z,96628.44
2022-11-13T20:05:11.913Z,96627.44
2022-11-13T20:06:15.982Z,96612.03
2022-11-13T20:07:21.334Z,96623.47
2022-11-13T20:08:26.763Z,96601.03
2022-11-13T20:09:29.600Z,96629.38
2022-11-13T20:10:31.489Z,96622.47
2022-11-13T20:11:34.000Z,96615.94
2022-11-13T20:12:35.638Z,96628.59
2022-11-13T20:13:39.141Z,96619.00
2022-11-13T20:14:40.506Z,96603.56
2022-11-13T20:15:42.096Z,96601.91
2022-11-13T20:16:43.597Z,96615.59
2022-11-13T20:17:44.978Z,96594.44
2022-11-13T20:18:46.762Z,96611.31
2022-11-13T20:19:48.586Z,96613.44
2022-11-13T20:20:54.470Z,96606.47
2022-11-13T20:21:56.356Z,96557.94
2022-11-13T20:22:57.733Z,96612.53
2022-11-13T20:24:03.726Z,96617.94
2022-11-13T20:25:05.354Z,96610.56
2022-11-13T20:26:11.319Z,96618.38
2022-11-13T20:27:12.729Z,96615.63
2022-11-13T20:28:14.051Z,96581.59
2022-11-13T20:29:19.016Z,96611.44
2022-11-13T20:30:20.392Z,96601.09
